Time;durP1;ratioP1;P1;durP2;ratioP2;P2;SDS_P1;SDS_P2;PMS_P1;PMS_P2;Temp;Humidity;BMP_temperature;BMP_pressure;BME280_temperature;BME280_humidity;BME280_pressure;Samples;Min_cycle;Max_cycle;Signal;HPM_P1;HPM_P2
2021/06/15 00:00:12;;;;;;;5.30;4.75;;;10.30;1.40;;;12.00;92.27;95674.73;645429;216;31602;-69
2021/06/15 00:02:54;;;;;;;5.90;4.70;;;10.20;1.40;;;11.90;92.53;95676.75;647184;212;31631;-71
2021/06/15 00:05:35;;;;;;;7.30;4.83;;;10.20;1.40;;;11.85;92.34;95672.83;646703;212;31592;-70
2021/06/15 00:08:17;;;;;;;5.70;5.10;;;10.10;1.40;;;11.85;93.30;95670.39;631118;221;31673;-69
2021/06/15 00:10:59;;;;;;;5.30;4.80;;;10.20;1.40;;;11.83;94.61;95678.57;645830;216;31582;-69
2021/06/15 00:16:18;;;;;;;5.30;4.40;;;10.20;1.40;;;11.83;92.08;95672.16;646200;212;31575;-70
2021/06/15 00:18:59;;;;;;;6.33;4.93;;;10.10;1.40;;;11.73;93.86;95672.64;647054;212;31600;-70
2021/06/15 00:21:41;;;;;;;5.20;4.80;;;10.00;1.40;;;11.69;96.16;95674.75;646588;212;32181;-70
2021/06/15 00:24:26;;;;;;;5.20;4.70;;;10.10;1.40;;;11.74;93.93;95678.54;646579;216;31760;-69
2021/06/15 00:27:07;;;;;;;6.17;4.87;;;10.10;1.40;;;11.67;95.12;95677.30;647678;212;42178;-70
2021/06/15 00:29:49;;;;;;;5.20;4.70;;;10.00;1.40;;;11.58;93.41;95676.52;648603;216;31688;-70
2021/06/15 00:32:32;;;;;;;6.20;4.65;;;9.90;1.40;;;11.54;95.44;95675.09;646424;212;31612;-70
2021/06/15 00:35:51;;;;;;;5.30;4.80;;;9.80;1.40;;;11.56;94.02;95676.90;650401;216;31613;-70
2021/06/15 00:38:32;;;;;;;5.30;4.80;;;9.80;1.40;;;11.46;94.86;95671.01;647995;216;31931;-70
2021/06/15 00:41:14;;;;;;;6.47;4.97;;;9.70;1.40;;;11.41;95.31;95667.97;645304;216;31702;-70
2021/06/15 00:43:56;;;;;;;5.17;4.67;;;9.70;1.40;;;11.44;96.28;95677.13;649335;212;31976;-71
2021/06/15 00:46:37;;;;;;;4.80;4.40;;;9.90;1.40;;;11.44;97.20;95671.44;646580;212;33105;-70
2021/06/15 00:49:19;;;;;;;5.12;4.50;;;9.90;1.40;;;11.47;95.79;95670.98;646564;216;42757;-72
2021/06/15 00:54:35;;;;;;;5.82;4.53;;;9.80;1.40;;;11.48;94.61;95670.96;646630;216;31557;-70
2021/06/15 00:57:18;;;;;;;5.20;4.60;;;9.80;1.40;;;11.35;95.38;95668.59;647279;216;31581;-70
2021/06/15 00:59:59;;;;;;;6.73;5.07;;;9.70;1.40;;;11.28;95.77;95668.64;649012;216;31666;-70
2021/06/15 01:02:41;;;;;;;5.23;4.83;;;9.60;1.40;;;11.23;96.68;95668.96;645057;212;31590;-70
2021/06/15 01:05:22;;;;;;;5.67;4.90;;;9.60;1.40;;;11.27;96.21;95663.41;649763;216;31983;-70
2021/06/15 01:08:07;;;;;;;5.40;4.90;;;9.70;1.40;;;11.34;95.53;95658.39;649204;216;31988;-70
2021/06/15 01:10:56;;;;;;;5.10;4.60;;;9.70;1.40;;;11.27;96.29;95660.79;646023;216;34562;-69
2021/06/15 01:13:43;;;;;;;5.23;4.73;;;9.70;1.40;;;11.27;94.42;95648.80;645979;212;31717;-70
2021/06/15 01:16:30;;;;;;;7.00;4.90;;;9.60;1.40;;;11.33;94.08;95651.66;648388;216;31583;-70
2021/06/15 01:19:27;;;;;;;5.82;4.68;;;9.60;1.40;;;11.23;94.17;95655.23;644410;212;31945;-69
2021/06/15 01:22:09;;;;;;;4.47;4.07;;;9.50;1.40;;;11.10;95.08;95656.94;618942;226;31919;-70
2021/06/15 01:24:53;;;;;;;4.70;4.30;;;9.30;1.40;;;11.03;94.73;95650.80;650521;212;31843;-70
2021/06/15 01:27:41;;;;;;;4.80;4.23;;;9.20;1.40;;;11.04;95.46;95649.58;647689;212;31605;-69
2021/06/15 01:30:23;;;;;;;5.37;4.40;;;9.20;1.40;;;10.80;96.41;95647.59;649034;216;31606;-70
2021/06/15 01:35:51;;;;;;;5.50;4.90;;;9.10;1.40;;;10.75;100.00;95640.92;647805;216;31612;-70
2021/06/15 01:38:33;;;;;;;5.53;5.03;;;9.30;1.40;;;10.87;100.00;95634.31;621414;222;31922;-70
2021/06/15 01:41:14;;;;;;;4.60;4.20;;;9.70;1.40;;;11.00;97.58;95631.98;646960;212;31681;-69
2021/06/15 01:44:02;;;;;;;4.73;4.33;;;9.60;1.40;;;10.89;98.18;95633.95;648316;216;31725;-70
2021/06/15 01:46:49;;;;;;;5.87;4.67;;;9.40;1.40;;;10.87;96.86;95636.91;645018;216;31608;-70
2021/06/15 01:49:31;;;;;;;4.83;4.33;;;9.30;1.40;;;10.81;97.16;95636.17;647043;212;31610;-70
2021/06/15 01:52:12;;;;;;;6.22;5.62;;;9.20;1.40;;;10.85;96.64;95638.22;646505;216;31616;-70
2021/06/15 01:54:54;;;;;;;5.20;4.80;;;9.20;1.40;;;10.82;99.19;95635.78;647916;212;31584;-70
2021/06/15 01:57:35;;;;;;;5.90;4.60;;;9.20;1.40;;;10.81;97.42;95640.95;646784;212;31570;-70
2021/06/15 02:00:19;;;;;;;6.10;4.40;;;9.20;1.40;;;10.72;97.10;95636.75;646395;216;31596;-69
2021/06/15 02:03:03;;;;;;;5.60;5.10;;;9.00;1.40;;;10.65;97.48;95636.36;647139;216;32209;-69
2021/06/15 02:05:46;;;;;;;5.47;4.97;;;8.90;1.40;;;10.55;99.54;95631.52;645216;216;32886;-70
2021/06/15 02:08:31;;;;;;;5.20;4.63;;;9.00;1.40;;;10.57;99.11;95630.39;647788;212;31607;-69
2021/06/15 02:11:13;;;;;;;6.63;4.47;;;9.00;1.40;;;10.72;96.79;95628.84;650667;212;31618;-69
2021/06/15 02:13:55;;;;;;;5.00;4.50;;;9.00;1.40;;;10.65;96.94;95626.81;647806;212;31564;-69
2021/06/15 02:16:36;;;;;;;5.20;4.70;;;8.90;1.40;;;10.40;100.00;95630.46;646961;212;31594;-69
2021/06/15 02:19:19;;;;;;;4.73;4.33;;;8.80;1.40;;;10.32;100.00;95630.89;632410;217;31670;-69
2021/06/15 02:22:07;;;;;;;4.80;4.30;;;8.80;1.40;;;10.37;99.72;95635.07;644895;216;32222;-70
2021/06/15 02:24:51;;;;;;;5.60;4.30;;;8.80;1.40;;;10.56;95.98;95631.28;647189;216;31618;-70
2021/06/15 02:30:11;;;;;;;5.30;4.80;;;8.80;1.40;;;10.26;100.00;95628.38;648402;216;31707;-69
2021/06/15 02:32:52;;;;;;;5.37;4.70;;;8.70;1.40;;;10.30;100.00;95631.73;646628;212;32184;-69
2021/06/15 02:35:57;;;;;;;5.03;4.62;;;8.80;1.40;;;10.23;100.00;95630.39;647805;216;31572;-69
2021/06/15 02:38:39;;;;;;;5.70;4.80;;;8.70;1.40;;;10.23;100.00;95631.27;647395;216;31589;-69
2021/06/15 02:41:20;;;;;;;5.20;4.70;;;8.80;1.40;;;10.21;100.00;95633.69;648235;216;31569;-70
2021/06/15 02:44:02;;;;;;;4.80;4.40;;;8.80;1.40;;;10.17;100.00;95631.58;646533;216;31612;-70
2021/06/15 02:46:43;;;;;;;5.67;5.17;;;8.70;1.40;;;10.18;100.00;95633.89;645536;212;31603;-70
2021/06/15 02:49:25;;;;;;;5.18;4.45;;;8.70;1.40;;;10.32;100.00;95636.36;648595;212;31618;-70
2021/06/15 02:52:11;;;;;;;5.80;4.90;;;8.70;1.40;;;10.27;100.00;95637.52;645401;212;31582;-69
2021/06/15 02:54:55;;;;;;;5.30;4.80;;;8.60;1.40;;;10.18;100.00;95638.39;646829;216;31578;-70
2021/06/15 02:57:36;;;;;;;6.10;5.40;;;8.60;1.40;;;10.18;100.00;95637.85;646071;212;31529;-69
2021/06/15 03:00:20;;;;;;;5.30;4.80;;;8.50;1.40;;;10.13;100.00;95639.02;645651;212;31585;-69
2021/06/15 03:03:02;;;;;;;6.07;5.30;;;8.50;1.40;;;10.13;100.00;95641.07;646149;216;31577;-69
2021/06/15 03:08:17;;;;;;;5.43;5.00;;;8.50;1.40;;;10.08;100.00;95645.59;647738;216;31664;-69
2021/06/15 03:11:02;;;;;;;5.80;5.30;;;8.40;1.40;;;10.08;100.00;95647.66;648616;216;31647;-70
2021/06/15 03:16:17;;;;;;;5.10;4.60;;;8.50;1.40;;;10.11;100.00;95655.73;647164;212;31712;-68
2021/06/15 03:19:02;;;;;;;6.27;4.23;;;8.50;1.40;;;9.99;100.00;95650.48;648470;216;31591;-69
2021/06/15 03:24:23;;;;;;;4.68;4.28;;;8.40;1.40;;;9.84;100.00;95650.70;644706;212;31749;-70
2021/06/15 03:27:08;;;;;;;5.00;4.40;;;8.40;1.40;;;9.82;100.00;95655.94;643464;215;32136;-69
2021/06/15 03:29:53;;;;;;;5.37;4.55;;;8.40;1.40;;;9.82;100.00;95655.45;646682;212;31836;-70
2021/06/15 03:32:35;;;;;;;5.00;4.60;;;8.30;1.40;;;9.83;100.00;95654.07;646039;212;31748;-70
2021/06/15 03:35:52;;;;;;;5.68;5.18;;;8.30;1.40;;;9.79;100.00;95654.84;649787;216;32181;-69
2021/06/15 03:38:34;;;;;;;5.90;5.30;;;8.30;1.40;;;9.79;100.00;95652.89;646101;212;42304;-69
2021/06/15 03:41:15;;;;;;;5.60;4.47;;;8.50;1.40;;;9.86;100.00;95654.93;645108;216;31711;-69
2021/06/15 03:43:57;;;;;;;5.20;4.73;;;8.60;1.40;;;9.96;100.00;95650.32;651259;212;32183;-69
2021/06/15 03:46:39;;;;;;;5.97;4.80;;;8.70;1.40;;;10.09;100.00;95646.63;644245;212;31598;-72
2021/06/15 03:49:22;;;;;;;9.33;5.83;;;8.80;1.40;;;10.11;100.00;95648.75;656229;216;23474;-79
2021/06/15 03:52:10;;;;;;;5.20;4.70;;;8.80;1.40;;;10.17;100.00;95649.78;618085;226;32045;-70
2021/06/15 03:54:52;;;;;;;5.40;4.90;;;9.00;1.40;;;10.41;100.00;95652.35;634075;221;32144;-69
2021/06/15 03:57:33;;;;;;;5.80;5.10;;;9.00;1.40;;;10.35;100.00;95648.77;645704;216;31707;-69
2021/06/15 04:00:17;;;;;;;5.53;4.70;;;9.00;1.40;;;10.38;100.00;95648.44;618339;223;32409;-70
2021/06/15 04:02:59;;;;;;;5.50;5.00;;;9.00;1.40;;;10.43;100.00;95651.91;647116;216;31674;-70
2021/06/15 04:05:41;;;;;;;5.50;5.00;;;9.00;1.40;;;10.49;100.00;95657.06;646994;212;31872;-70
2021/06/15 04:08:22;;;;;;;5.50;5.00;;;9.10;1.40;;;10.56;100.00;95658.45;647279;212;32030;-72
2021/06/15 04:11:06;;;;;;;6.05;5.45;;;9.10;1.40;;;10.69;100.00;95655.95;644639;216;31684;-69
2021/06/15 04:13:46;;;;;;;5.83;5.23;;;9.30;1.40;;;10.78;100.00;95653.08;650196;212;32014;-70
2021/06/15 04:16:27;;;;;;;6.05;5.45;;;9.40;1.40;;;10.85;100.00;95652.16;647555;212;31687;-71
2021/06/15 04:19:09;;;;;;;6.03;4.90;;;9.40;1.40;;;10.90;100.00;95650.36;646962;216;31694;-69
2021/06/15 04:21:51;;;;;;;8.10;5.60;;;9.40;1.40;;;10.97;100.00;95648.66;645207;212;31716;-70
2021/06/15 04:24:32;;;;;;;6.37;5.50;;;9.50;1.40;;;11.04;100.00;95648.37;644181;216;32120;-70
2021/06/15 04:27:14;;;;;;;7.07;5.28;;;9.60;1.40;;;11.17;100.00;95646.34;649056;212;32088;-70
2021/06/15 04:29:55;;;;;;;5.50;5.00;;;9.60;1.40;;;11.21;100.00;95649.52;649537;212;31695;-70
2021/06/15 04:32:45;;;;;;;8.50;5.18;;;9.70;1.40;;;11.33;99.63;95643.51;648456;212;31633;-70
2021/06/15 04:35:51;;;;;;;5.70;5.10;;;9.80;1.40;;;11.40;100.00;95640.89;650667;216;31559;-70
2021/06/15 04:38:44;;;;;;;6.20;5.23;;;10.10;1.40;;;11.68;100.00;95645.78;647021;212;31566;-70
2021/06/15 04:41:29;;;;;;;6.27;5.40;;;10.30;1.40;;;11.93;100.00;95650.54;647935;216;31580;-71
2021/06/15 04:44:13;;;;;;;6.00;5.40;;;10.60;1.40;;;12.28;100.00;95652.14;648161;216;31615;-70
2021/06/15 04:46:58;;;;;;;6.73;5.60;;;11.20;1.40;;;12.62;99.07;95648.94;648872;212;32148;-70
2021/06/15 04:49:47;;;;;;;7.23;5.40;;;11.70;1.40;;;12.97;97.30;95648.11;618718;226;32539;-71
2021/06/15 04:52:27;;;;;;;7.60;5.10;;;12.10;1.40;;;13.22;95.16;95649.33;618649;226;31892;-70
2021/06/15 04:55:09;;;;;;;5.60;4.60;;;12.30;1.40;;;13.35;94.16;95656.58;645311;212;31572;-70
2021/06/15 04:57:51;;;;;;;6.87;4.90;;;12.20;1.40;;;13.47;93.58;95652.61;647767;216;31777;-70
2021/06/15 05:00:33;;;;;;;5.43;4.90;;;12.30;1.40;;;13.68;93.29;95649.37;645556;216;31823;-70
2021/06/15 05:03:14;;;;;;;5.22;4.72;;;12.70;1.40;;;13.86;92.34;95652.01;647160;214;31610;-69
2021/06/15 05:05:56;;;;;;;7.50;4.77;;;13.00;1.40;;;14.08;91.62;95648.64;647048;212;42215;-70
2021/06/15 05:08:39;;;;;;;6.90;4.65;;;13.20;1.40;;;14.29;91.41;95650.01;648703;212;31501;-70
2021/06/15 05:11:21;;;;;;;5.30;4.80;;;13.40;1.40;;;14.50;89.96;95644.67;644491;216;32730;-69
2021/06/15 05:14:04;;;;;;;5.50;5.00;;;13.50;1.40;;;14.51;90.33;95649.52;643400;216;31616;-69
2021/06/15 05:16:45;;;;;;;5.25;4.75;;;13.60;1.40;;;14.73;89.98;95654.63;647420;216;31633;-70
2021/06/15 05:19:27;;;;;;;7.30;5.17;;;13.60;1.40;;;14.92;90.32;95657.30;644730;216;31937;-71
2021/06/15 05:25:03;;;;;;;5.50;4.90;;;14.00;1.40;;;15.23;89.25;95658.00;647600;216;31819;-70
2021/06/15 05:27:43;;;;;;;5.50;5.00;;;14.10;1.40;;;15.39;88.56;95659.03;644352;216;31585;-70
2021/06/15 05:30:25;;;;;;;6.37;5.03;;;14.30;1.40;;;15.36;89.23;95657.27;649850;216;42333;-70
2021/06/15 05:35:51;;;;;;;5.60;5.00;;;14.40;1.40;;;15.69;89.59;95658.28;647213;216;31565;-70
2021/06/15 05:38:33;;;;;;;6.72;5.40;;;14.50;1.40;;;15.89;89.06;95665.53;646903;216;32973;-70
2021/06/15 05:41:15;;;;;;;5.00;4.50;;;14.70;1.40;;;16.07;88.36;95661.72;634900;221;31764;-71
2021/06/15 05:43:56;;;;;;;5.47;4.97;;;14.90;1.40;;;16.23;86.92;95665.75;644912;216;36244;-70
2021/06/15 05:46:41;;;;;;;5.30;4.80;;;15.00;1.40;;;16.23;87.34;95661.55;646725;212;31660;-71
2021/06/15 05:49:23;;;;;;;6.80;4.70;;;15.10;1.40;;;16.31;87.64;95665.52;646787;216;31653;-71
2021/06/15 05:52:06;;;;;;;5.10;4.60;;;15.30;1.40;;;16.47;85.23;95673.59;619360;225;43129;-69
2021/06/15 05:54:47;;;;;;;7.12;4.37;;;15.50;1.40;;;16.59;85.53;95671.30;647496;216;42392;-71
2021/06/15 05:57:30;;;;;;;7.70;4.85;;;15.40;1.40;;;16.73;85.15;95673.09;649819;212;42206;-70
2021/06/15 06:00:11;;;;;;;5.87;4.82;;;15.70;1.40;;;16.91;83.93;95675.34;643979;215;31787;-71
2021/06/15 06:02:53;;;;;;;5.35;4.70;;;15.70;1.40;;;17.00;83.78;95673.83;644676;216;31617;-70
2021/06/15 06:08:24;;;;;;;5.53;4.30;;;15.90;1.40;;;17.22;79.79;95677.16;644489;216;31580;-71
2021/06/15 06:11:04;;;;;;;5.97;4.95;;;16.20;1.40;;;17.48;80.39;95677.20;646672;216;31587;-70
2021/06/15 06:13:46;;;;;;;4.78;4.12;;;16.30;1.40;;;17.66;79.19;95681.13;646819;216;31565;-70
2021/06/15 06:16:27;;;;;;;6.43;4.68;;;16.60;1.40;;;17.79;78.91;95682.89;649511;212;31689;-69
2021/06/15 06:19:10;;;;;;;6.32;4.62;;;16.60;1.40;;;17.94;78.47;95682.09;645644;212;32148;-70
2021/06/15 06:21:51;;;;;;;4.30;3.90;;;16.60;1.40;;;18.06;77.90;95684.30;646931;216;31647;-69
2021/06/15 06:24:33;;;;;;;5.80;3.70;;;16.50;1.40;;;18.12;76.37;95681.25;644516;212;31652;-71
2021/06/15 06:27:15;;;;;;;6.37;4.00;;;16.60;1.40;;;18.26;77.82;95681.52;648692;216;31951;-70
2021/06/15 06:29:56;;;;;;;4.70;4.20;;;16.70;1.40;;;18.36;76.22;95675.86;647680;212;31733;-70
2021/06/15 06:32:38;;;;;;;5.57;4.12;;;16.80;1.40;;;18.48;74.09;95673.64;646290;216;31834;-70
2021/06/15 06:35:51;;;;;;;6.47;4.40;;;17.20;1.40;;;18.73;74.93;95677.80;646982;212;42209;-70
2021/06/15 06:38:32;;;;;;;4.95;3.87;;;17.30;1.40;;;18.91;72.83;95678.30;650433;216;31904;-71
2021/06/15 06:41:15;;;;;;;7.97;4.30;;;17.50;1.40;;;18.97;69.89;95674.14;645540;216;31676;-70
2021/06/15 06:43:56;;;;;;;8.82;4.15;;;17.70;1.40;;;19.01;69.65;95671.14;648009;216;31879;-71
2021/06/15 06:46:41;;;;;;;4.62;3.60;;;17.90;1.40;;;19.14;69.60;95669.48;648260;212;31553;-70
2021/06/15 06:49:22;;;;;;;8.00;5.80;;;18.00;1.40;;;19.39;70.29;95674.20;648896;212;31560;-70
2021/06/15 06:52:04;;;;;;;6.57;4.28;;;18.00;1.40;;;19.49;69.57;95674.04;646623;215;31573;-71
2021/06/15 06:54:46;;;;;;;5.15;4.00;;;18.20;1.40;;;19.70;69.98;95671.67;648600;212;31562;-71
2021/06/15 06:57:28;;;;;;;4.25;3.85;;;18.40;1.40;;;19.84;68.50;95672.89;647149;216;31559;-71
2021/06/15 07:00:11;;;;;;;4.80;3.95;;;18.50;1.40;;;20.03;67.13;95665.42;647486;213;31737;-70
2021/06/15 07:02:53;;;;;;;5.55;3.80;;;18.70;1.40;;;20.15;68.67;95662.50;647661;216;31564;-71
2021/06/15 07:05:37;;;;;;;6.30;4.20;;;18.80;1.40;;;20.34;68.42;95659.30;648666;216;31573;-70
2021/06/15 07:08:19;;;;;;;5.85;4.25;;;18.90;1.40;;;20.48;68.36;95662.66;649578;212;31581;-70
2021/06/15 07:11:01;;;;;;;4.90;4.22;;;18.90;1.40;;;20.53;66.66;95657.03;649044;216;31559;-71
2021/06/15 07:13:45;;;;;;;6.40;3.72;;;19.10;1.40;;;20.64;67.52;95654.20;647603;212;31630;-70
2021/06/15 07:16:27;;;;;;;5.53;4.25;;;19.20;1.40;;;20.90;67.04;95659.08;646656;216;31681;-71
2021/06/15 07:19:09;;;;;;;5.50;3.42;;;19.30;1.40;;;20.91;62.42;95659.73;618742;226;31941;-71
2021/06/15 07:21:50;;;;;;;3.70;3.30;;;19.40;1.40;;;21.06;62.28;95658.81;647922;216;31954;-70
2021/06/15 07:24:32;;;;;;;3.90;3.60;;;19.60;1.40;;;21.14;64.03;95656.32;646579;216;31692;-70
2021/06/15 07:27:14;;;;;;;6.30;4.18;;;19.70;1.40;;;21.31;65.52;95653.21;645654;212;31832;-71
2021/06/15 07:29:55;;;;;;;5.40;4.93;;;19.80;1.40;;;21.53;66.59;95650.92;647027;212;31595;-71
2021/06/15 07:32:37;;;;;;;5.07;4.40;;;20.00;1.40;;;21.61;63.72;95650.94;645304;212;31564;-71
2021/06/15 07:35:51;;;;;;;6.22;4.60;;;20.00;1.40;;;21.70;63.81;95652.19;645119;212;32126;-72
2021/06/15 07:38:39;;;;;;;4.70;4.15;;;19.90;1.40;;;21.77;64.66;95653.56;646491;216;31763;-71
2021/06/15 07:41:20;;;;;;;3.58;3.20;;;20.10;1.40;;;22.09;63.47;95657.60;620361;222;31893;-71
2021/06/15 07:44:02;;;;;;;3.75;3.45;;;20.70;1.40;;;22.28;63.03;95654.36;647656;212;31557;-71
2021/06/15 07:46:44;;;;;;;5.32;4.20;;;20.90;1.40;;;22.33;60.80;95655.50;644559;216;31753;-70
2021/06/15 07:49:26;;;;;;;7.00;3.50;;;20.90;1.40;;;22.49;60.82;95654.88;647811;216;31586;-72
2021/06/15 07:52:07;;;;;;;5.70;3.33;;;21.20;1.40;;;22.40;58.96;95653.81;619141;223;32660;-71
2021/06/15 07:54:49;;;;;;;5.00;3.05;;;21.10;1.40;;;22.40;57.92;95650.91;644797;213;31590;-71
2021/06/15 07:57:31;;;;;;;5.05;3.00;;;21.10;1.40;;;22.50;55.23;95656.71;647837;216;31576;-71
2021/06/15 08:00:13;;;;;;;3.78;2.70;;;21.40;1.40;;;22.56;52.70;95660.75;647246;216;31587;-70
2021/06/15 08:02:55;;;;;;;3.40;2.60;;;21.40;1.40;;;22.67;53.39;95656.47;645744;216;31596;-70
2021/06/15 08:05:36;;;;;;;4.78;3.05;;;21.40;1.40;;;22.99;54.69;95653.67;643785;212;32186;-70
2021/06/15 08:08:19;;;;;;;3.75;3.20;;;21.70;1.40;;;23.47;55.99;95652.11;645319;216;42805;-71
2021/06/15 08:11:04;;;;;;;5.05;3.10;;;22.00;1.40;;;23.50;54.33;95654.34;648423;216;31939;-70
2021/06/15 08:13:46;;;;;;;3.87;3.47;;;21.90;1.40;;;23.67;54.37;95651.65;647526;216;31832;-71
2021/06/15 08:16:27;;;;;;;5.62;2.83;;;22.10;1.40;;;23.84;54.01;95647.78;647405;216;31884;-69
2021/06/15 08:19:12;;;;;;;4.45;3.08;;;22.30;1.40;;;24.07;53.55;95649.62;645283;216;31578;-71
2021/06/15 08:21:53;;;;;;;6.57;3.60;;;22.60;1.40;;;24.26;53.27;95644.56;646592;212;32154;-71
2021/06/15 08:24:35;;;;;;;5.07;3.10;;;22.90;1.40;;;24.61;51.49;95645.84;647107;212;31943;-70
2021/06/15 08:27:17;;;;;;;5.80;3.47;;;23.20;1.40;;;24.79;54.27;95647.14;646618;216;31691;-70
2021/06/15 08:29:59;;;;;;;8.05;3.33;;;23.30;1.40;;;24.79;49.56;95652.91;648121;216;31646;-70
2021/06/15 08:32:40;;;;;;;7.37;3.17;;;23.30;1.40;;;24.92;51.69;95647.77;647804;212;31690;-71
2021/06/15 08:35:51;;;;;;;3.20;2.70;;;23.30;1.40;;;24.94;49.65;95645.81;647315;212;31639;-71
2021/06/15 08:38:32;;;;;;;4.70;3.33;;;23.10;1.40;;;24.99;51.28;95653.50;648567;212;31588;-70
2021/06/15 08:41:18;;;;;;;4.87;4.10;;;23.60;1.40;;;25.13;47.53;95645.92;646737;212;32206;-70
2021/06/15 08:43:59;;;;;;;4.32;3.42;;;23.70;1.40;;;25.53;50.61;95643.65;644602;212;31692;-70
2021/06/15 08:46:44;;;;;;;3.63;2.60;;;24.00;1.40;;;25.48;47.71;95643.80;646000;212;31606;-70
2021/06/15 08:52:00;;;;;;;6.53;3.25;;;23.90;1.40;;;25.60;46.79;95652.61;622896;222;33984;-71
2021/06/15 08:54:42;;;;;;;4.18;2.40;;;24.20;1.40;;;25.92;47.97;95653.61;619199;226;31886;-70
2021/06/15 08:57:23;;;;;;;5.12;3.10;;;24.50;1.40;;;26.10;48.65;95655.23;643746;216;31760;-70
2021/06/15 09:00:10;;;;;;;4.22;3.05;;;24.80;1.40;;;26.28;45.45;95658.63;647623;216;42324;-70
2021/06/15 09:02:51;;;;;;;4.50;3.10;;;24.70;1.40;;;26.14;46.89;95655.30;648152;212;32113;-70
2021/06/15 09:05:33;;;;;;;4.83;2.70;;;24.60;1.40;;;26.37;42.71;95651.46;647004;216;31923;-71
2021/06/15 09:08:15;;;;;;;6.30;2.90;;;24.40;1.40;;;26.29;44.16;95656.86;651824;212;31680;-71
2021/06/15 09:10:59;;;;;;;5.30;3.10;;;24.80;1.40;;;27.00;45.67;95657.34;646624;216;31581;-70
2021/06/15 09:13:41;;;;;;;3.70;3.00;;;25.30;1.40;;;27.23;43.37;95657.72;648533;216;31553;-70
2021/06/15 09:16:28;;;;;;;6.53;3.40;;;25.60;1.40;;;27.15;45.03;95659.97;645630;216;42186;-70
2021/06/15 09:19:17;;;;;;;8.10;3.10;;;25.80;1.40;;;27.54;43.92;95658.64;647017;212;31656;-71
2021/06/15 09:22:00;;;;;;;6.85;3.45;;;26.00;1.40;;;27.71;42.15;95656.81;647565;216;42667;-71
2021/06/15 09:24:45;;;;;;;4.60;3.20;;;26.00;1.40;;;27.19;48.57;95657.58;647932;212;31666;-72
2021/06/15 09:27:31;;;;;;;6.47;3.40;;;25.70;1.40;;;28.80;43.80;95647.45;645435;212;31658;-71
2021/06/15 09:30:14;;;;;;;5.18;3.78;;;27.90;1.40;;;30.36;39.67;95646.17;646019;212;32157;-71
2021/06/15 09:32:56;;;;;;;4.90;3.70;;;28.40;1.40;;;31.07;39.78;95648.67;647068;216;32360;-71
2021/06/15 09:35:51;;;;;;;7.00;3.85;;;29.10;1.40;;;32.57;35.48;95649.29;647493;213;35124;-71
2021/06/15 09:38:34;;;;;;;3.92;3.53;;;29.50;1.40;;;32.78;35.58;95650.19;645302;212;42792;-70
2021/06/15 09:41:35;;;;;;;4.97;3.60;;;29.10;1.40;;;33.01;37.54;95648.50;645806;212;31647;-70
2021/06/15 09:44:17;;;;;;;4.57;4.10;;;29.70;1.40;;;34.58;35.67;95648.72;645987;216;31590;-72
2021/06/15 09:47:01;;;;;;;5.70;3.50;;;30.40;1.40;;;36.17;33.89;95650.40;645805;212;42898;-71
2021/06/15 09:49:43;;;;;;;4.60;3.40;;;31.00;1.40;;;35.06;34.90;95643.88;646806;212;31597;-72
2021/06/15 09:52:24;;;;;;;4.97;3.08;;;30.00;1.40;;;35.90;31.03;95641.37;646772;212;31757;-72
2021/06/15 09:55:08;;;;;;;5.03;3.53;;;30.70;1.40;;;34.83;28.19;95641.91;648334;216;42369;-72
2021/06/15 09:57:51;;;;;;;5.72;3.40;;;29.70;1.40;;;35.12;30.10;95646.40;645625;216;31615;-72
2021/06/15 10:00:34;;;;;;;4.80;3.70;;;29.70;1.40;;;36.44;29.87;95646.50;620371;226;32298;-72
2021/06/15 10:03:16;;;;;;;7.40;3.50;;;30.30;1.40;;;36.33;27.55;95644.25;645532;216;31712;-72
2021/06/15 10:05:57;;;;;;;8.48;3.50;;;30.70;1.40;;;37.10;28.63;95644.13;647312;212;31671;-72
2021/06/15 10:08:42;;;;;;;3.80;3.30;;;31.00;1.40;;;36.65;30.27;95645.92;647630;216;31776;-72
2021/06/15 10:11:24;;;;;;;4.97;3.22;;;30.40;1.40;;;37.69;29.88;95649.28;649302;212;31605;-72
2021/06/15 10:14:09;;;;;;;3.17;2.87;;;30.80;1.40;;;37.63;27.48;95647.52;646924;212;31814;-72
2021/06/15 10:16:51;;;;;;;4.00;3.30;;;30.80;1.40;;;38.32;25.99;95642.10;620549;222;42717;-72
2021/06/15 10:19:32;;;;;;;3.37;2.50;;;30.60;1.40;;;38.57;28.16;95642.48;649018;212;31869;-72
2021/06/15 10:22:15;;;;;;;4.35;2.70;;;31.30;1.40;;;38.63;25.71;95639.02;647599;216;31599;-72
2021/06/15 10:24:56;;;;;;;4.28;2.47;;;31.80;1.40;;;40.60;24.79;95635.17;645812;216;42573;-72
2021/06/15 10:27:37;;;;;;;2.70;2.12;;;31.60;1.40;;;39.55;26.83;95637.16;646077;216;31880;-73
2021/06/15 10:30:37;;;;;;;4.53;2.67;;;31.60;1.40;;;40.25;24.99;95637.16;618992;226;32686;-72
2021/06/15 10:35:53;;;;;;;3.03;2.28;;;31.00;1.40;;;40.23;23.99;95637.94;619399;222;32941;-73
2021/06/15 10:38:49;;;;;;;2.85;2.53;;;31.50;1.40;;;38.37;25.49;95640.48;648037;212;33642;-72
2021/06/15 10:41:35;;;;;;;3.65;2.40;;;30.80;1.40;;;37.62;25.15;95647.28;649654;212;31588;-72
2021/06/15 10:44:20;;;;;;;3.97;2.37;;;30.70;1.40;;;38.46;22.62;95641.29;644922;216;31659;-72
2021/06/15 10:47:02;;;;;;;3.78;2.60;;;30.50;1.40;;;38.77;22.44;95638.80;645475;212;33539;-71
2021/06/15 10:49:57;;;;;;;4.10;3.70;;;30.60;1.40;;;40.00;25.16;95635.34;646238;212;42227;-72
2021/06/15 10:52:58;;;;;;;4.50;2.20;;;31.50;1.40;;;39.44;23.97;95632.20;642286;218;31673;-71
2021/06/15 10:55:47;;;;;;;5.43;2.22;;;31.30;1.40;;;39.65;24.33;95628.52;646779;212;42234;-74
2021/06/15 10:58:53;;;;;;;3.47;2.20;;;30.90;1.40;;;37.61;24.16;95636.50;648243;212;31920;-74
2021/06/15 11:01:37;;;;;;;4.60;3.85;;;30.40;1.40;;;36.09;24.29;95636.99;649064;212;32109;-74
2021/06/15 11:04:18;;;;;;;3.40;2.20;;;30.10;1.40;;;35.63;24.80;95641.40;646709;213;31594;-73
2021/06/15 11:07:00;;;;;;;2.92;2.60;;;30.20;1.40;;;35.65;26.47;95638.08;641727;215;31644;-73
2021/06/15 11:09:48;;;;;;;3.42;2.80;;;30.30;1.40;;;36.14;24.80;95638.20;620011;226;31938;-75
2021/06/15 11:12:29;;;;;;;3.67;2.20;;;30.40;1.40;;;35.85;24.42;95640.46;645124;212;42228;-73
2021/06/15 11:15:12;;;;;;;2.40;2.20;;;30.20;1.40;;;33.21;24.65;95643.47;638032;212;42327;-75
2021/06/15 11:17:57;;;;;;;2.40;2.20;;;29.30;1.40;;;33.05;29.04;95638.75;619506;226;32388;-72
2021/06/15 11:20:41;;;;;;;2.17;1.98;;;29.30;1.40;;;33.88;26.87;95637.32;648980;216;31556;-72
2021/06/15 11:23:29;;;;;;;3.95;2.05;;;29.90;1.40;;;34.53;27.24;95636.97;650615;216;31576;-73
2021/06/15 11:26:13;;;;;;;2.53;2.30;;;30.30;1.40;;;34.68;27.19;95634.72;647900;212;31568;-73
2021/06/15 11:29:01;;;;;;;3.50;2.20;;;30.20;1.40;;;34.10;27.26;95638.70;645336;212;31783;-71
2021/06/15 11:31:45;;;;;;;1.98;1.55;;;30.20;1.40;;;34.13;25.32;95649.42;647863;216;31746;-71
2021/06/15 11:35:54;;;;;;;3.30;2.25;;;29.90;1.40;;;34.65;25.95;95633.58;648215;212;31735;-72
2021/06/15 11:41:11;;;;;;;2.17;1.92;;;30.20;1.40;;;34.22;25.52;95633.34;644795;216;31687;-72
2021/06/15 11:43:56;;;;;;;2.42;2.10;;;30.10;1.40;;;34.29;26.54;95631.31;618631;226;31947;-72
2021/06/15 11:46:38;;;;;;;9.40;2.08;;;30.00;1.40;;;32.83;27.17;95637.79;647640;212;32229;-72
2021/06/15 11:49:20;;;;;;;4.45;1.85;;;29.40;1.40;;;33.37;28.22;95624.61;648620;216;31673;-72
2021/06/15 11:52:01;;;;;;;4.12;2.10;;;29.70;1.40;;;32.65;26.01;95635.72;645374;216;31833;-76
2021/06/15 11:54:50;;;;;;;4.00;2.12;;;29.30;1.40;;;32.42;27.86;95633.87;645326;216;31784;-75
2021/06/15 11:57:40;;;;;;;5.30;2.00;;;29.70;1.40;;;33.82;28.76;95621.99;646799;216;31577;-72
2021/06/15 12:00:22;;;;;;;2.45;1.80;;;30.30;1.40;;;34.41;28.21;95618.65;645438;212;31639;-71
2021/06/15 12:03:10;;;;;;;2.78;1.80;;;30.80;1.40;;;34.87;28.50;95616.46;647122;216;31723;-73
2021/06/15 12:05:58;;;;;;;2.35;2.08;;;30.90;1.40;;;34.97;27.64;95616.08;649708;216;31962;-73
2021/06/15 12:08:40;;;;;;;2.67;1.92;;;31.10;1.40;;;35.85;26.68;95615.11;648576;212;31548;-74
2021/06/15 12:11:30;;;;;;;2.05;1.85;;;31.00;1.40;;;35.63;25.83;95611.06;646616;216;31641;-73
2021/06/15 12:14:12;;;;;;;3.35;1.75;;;30.80;1.40;;;36.06;26.56;95610.77;643689;212;31740;-74